RWD711 EGLL-HRYR
Flight info
| Callsign | RWD711 |
|---|---|
| Flight time | N/A |
| Altitude | 35000 |
| Route | MODMI M185 MID UL612 VEULE DCT DEKOD UN857 DISAK DCT DIRMO DCT ETAMO DCT ADEKA DCT MOKDI DCT MEN DCT BADAM DCT FJR DCT OBLAD DCT KAMER/N0472F370 UM998 CSO UM2 DJA UB730 IKTAV/N0469F390 UB730 DIR UG862 SOPOG UT139 ASKON DCT ATUGA/N0473F400 DCT OKTEX/N0455F240 L432 ALSAR ALSAR1B |
| Aircraft | A333/H-SDE3GHIJ2J3J5M1RVWXY/LB2D1 |
Departure
| Time | N/A |
|---|---|
| Airport | London Heathrow Airport (EGLL) |
Arrival
| Time | 2026-05-05 14:56 |
|---|---|
| Airport | Kigali International Airport (HRYR) |
| Time | Latitude | Longitude | Altitude | Speed | Heading |
|---|---|---|---|---|---|
| 2026-05-05 11:40 | 12.80705 | 18.72435 | 36859 ft | 492 kts | 140° |
| 2026-05-05 11:41 | 12.75543 | 18.77124 | 36880 ft | 492 kts | 140° |
| 2026-05-05 11:41 | 12.70404 | 18.81790 | 36845 ft | 491 kts | 140° |
| 2026-05-05 11:42 | 12.65280 | 18.86439 | 36809 ft | 492 kts | 140° |
| 2026-05-05 11:42 | 12.60170 | 18.91074 | 36823 ft | 493 kts | 140° |
| 2026-05-05 11:43 | 12.55046 | 18.95719 | 36866 ft | 492 kts | 140° |
| 2026-05-05 11:43 | 12.49918 | 19.00364 | 36894 ft | 490 kts | 140° |
| 2026-05-05 11:44 | 12.44821 | 19.04979 | 36866 ft | 489 kts | 140° |
| 2026-05-05 11:44 | 12.39723 | 19.09590 | 36829 ft | 491 kts | 140° |
| 2026-05-05 11:45 | 12.34609 | 19.14219 | 36835 ft | 491 kts | 140° |
| 2026-05-05 11:45 | 12.29505 | 19.18828 | 36872 ft | 490 kts | 140° |
| 2026-05-05 11:46 | 12.24406 | 19.23435 | 36900 ft | 489 kts | 140° |
| 2026-05-05 11:46 | 12.19282 | 19.28061 | 36870 ft | 488 kts | 140° |
| 2026-05-05 11:47 | 12.14196 | 19.32651 | 36843 ft | 489 kts | 140° |
| 2026-05-05 11:47 | 12.09081 | 19.37263 | 36844 ft | 490 kts | 140° |
| 2026-05-05 11:48 | 12.01457 | 19.44135 | 36848 ft | 488 kts | 140° |
| 2026-05-05 11:48 | 11.96365 | 19.48722 | 36855 ft | 489 kts | 140° |
| 2026-05-05 11:49 | 11.91264 | 19.53314 | 36887 ft | 488 kts | 140° |
| 2026-05-05 11:49 | 11.86172 | 19.57897 | 36901 ft | 486 kts | 140° |
| 2026-05-05 11:50 | 11.81095 | 19.62462 | 36863 ft | 486 kts | 140° |
| 2026-05-05 11:50 | 11.76002 | 19.67041 | 36824 ft | 487 kts | 140° |
| 2026-05-05 11:51 | 11.70897 | 19.71626 | 36835 ft | 488 kts | 140° |
| 2026-05-05 11:51 | 11.65822 | 19.76184 | 36874 ft | 487 kts | 140° |
| 2026-05-05 11:52 | 11.60694 | 19.80749 | 36875 ft | 486 kts | 140° |
| 2026-05-05 11:52 | 11.55593 | 19.85268 | 36833 ft | 485 kts | 140° |
| 2026-05-05 11:53 | 11.50527 | 19.89752 | 36811 ft | 485 kts | 140° |
| 2026-05-05 11:53 | 11.45417 | 19.94272 | 36840 ft | 485 kts | 140° |
| 2026-05-05 11:54 | 11.40334 | 19.98768 | 36879 ft | 484 kts | 140° |
| 2026-05-05 11:54 | 11.35250 | 20.03262 | 36868 ft | 483 kts | 140° |
| 2026-05-05 11:55 | 11.30172 | 20.07748 | 36825 ft | 483 kts | 140° |
| 2026-05-05 11:55 | 11.25078 | 20.12246 | 36807 ft | 485 kts | 140° |
| 2026-05-05 11:56 | 11.19981 | 20.16744 | 36843 ft | 485 kts | 140° |
| 2026-05-05 11:56 | 11.14906 | 20.21222 | 36883 ft | 482 kts | 140° |
| 2026-05-05 11:57 | 11.09827 | 20.25700 | 36869 ft | 480 kts | 140° |
| 2026-05-05 11:57 | 11.04756 | 20.30170 | 36824 ft | 481 kts | 140° |
| 2026-05-05 11:58 | 10.99714 | 20.34611 | 36811 ft | 483 kts | 140° |
| 2026-05-05 11:58 | 10.94654 | 20.39066 | 36837 ft | 482 kts | 140° |
| 2026-05-05 11:59 | 10.89562 | 20.43549 | 36867 ft | 481 kts | 140° |
| 2026-05-05 11:59 | 10.84493 | 20.48008 | 36843 ft | 480 kts | 140° |
| 2026-05-05 12:00 | 10.79409 | 20.52477 | 36802 ft | 481 kts | 140° |
| 2026-05-05 12:00 | 10.74356 | 20.56918 | 36793 ft | 482 kts | 140° |
| 2026-05-05 12:01 | 10.69278 | 20.61378 | 36830 ft | 482 kts | 140° |
| 2026-05-05 12:01 | 10.64242 | 20.65800 | 36859 ft | 481 kts | 140° |
| 2026-05-05 12:02 | 10.59125 | 20.70291 | 36838 ft | 481 kts | 140° |
| 2026-05-05 12:02 | 10.54072 | 20.74725 | 36808 ft | 482 kts | 140° |
| 2026-05-05 12:03 | 10.48999 | 20.79173 | 36815 ft | 482 kts | 141° |
| 2026-05-05 12:03 | 10.43935 | 20.83610 | 36853 ft | 481 kts | 140° |
| 2026-05-05 12:04 | 10.38851 | 20.88066 | 36879 ft | 481 kts | 141° |
| 2026-05-05 12:04 | 10.33796 | 20.92492 | 36850 ft | 481 kts | 140° |
| 2026-05-05 12:05 | 10.28724 | 20.96931 | 36812 ft | 482 kts | 140° |
| 2026-05-05 12:05 | 10.23637 | 21.01381 | 36815 ft | 483 kts | 141° |
| 2026-05-05 12:06 | 10.18572 | 21.05811 | 36851 ft | 482 kts | 140° |
| 2026-05-05 12:06 | 10.13483 | 21.10259 | 36864 ft | 482 kts | 140° |
| 2026-05-05 12:07 | 10.08379 | 21.14719 | 36826 ft | 483 kts | 140° |
| 2026-05-05 12:07 | 10.03288 | 21.19165 | 36787 ft | 484 kts | 140° |
| 2026-05-05 12:08 | 9.98195 | 21.23612 | 36790 ft | 483 kts | 140° |
| 2026-05-05 12:08 | 9.93090 | 21.28066 | 36838 ft | 483 kts | 140° |
| 2026-05-05 12:09 | 9.88005 | 21.32502 | 36868 ft | 482 kts | 140° |
| 2026-05-05 12:09 | 9.82896 | 21.36959 | 36839 ft | 482 kts | 140° |
| 2026-05-05 12:10 | 9.77784 | 21.41412 | 36794 ft | 483 kts | 140° |
| 2026-05-05 12:10 | 9.72678 | 21.45860 | 36802 ft | 485 kts | 140° |
| 2026-05-05 12:11 | 9.67592 | 21.50289 | 36848 ft | 484 kts | 140° |
| 2026-05-05 12:11 | 9.62495 | 21.54727 | 36876 ft | 481 kts | 140° |
| 2026-05-05 12:12 | 9.57415 | 21.59146 | 36848 ft | 481 kts | 140° |
| 2026-05-05 12:12 | 9.52330 | 21.63578 | 36804 ft | 482 kts | 139° |
| 2026-05-05 12:13 | 9.47269 | 21.68130 | 36797 ft | 483 kts | 139° |
| 2026-05-05 12:13 | 9.42260 | 21.72625 | 36838 ft | 482 kts | 139° |
| 2026-05-05 12:14 | 9.37256 | 21.77114 | 36870 ft | 482 kts | 139° |
| 2026-05-05 12:14 | 9.32210 | 21.81639 | 36844 ft | 481 kts | 139° |
| 2026-05-05 12:15 | 9.27196 | 21.86134 | 36803 ft | 481 kts | 139° |
| 2026-05-05 12:15 | 9.22214 | 21.90597 | 36802 ft | 481 kts | 139° |
| 2026-05-05 12:16 | 9.17196 | 21.95091 | 36846 ft | 481 kts | 139° |
| 2026-05-05 12:16 | 9.12196 | 21.99567 | 36876 ft | 479 kts | 139° |
| 2026-05-05 12:17 | 9.07199 | 22.04039 | 36863 ft | 479 kts | 139° |
| 2026-05-05 12:17 | 9.02204 | 22.08507 | 36825 ft | 479 kts | 139° |
| 2026-05-05 12:18 | 8.97192 | 22.12990 | 36828 ft | 481 kts | 139° |
| 2026-05-05 12:18 | 8.92216 | 22.17438 | 36882 ft | 480 kts | 139° |
| 2026-05-05 12:19 | 8.87215 | 22.21907 | 36913 ft | 479 kts | 139° |
| 2026-05-05 12:19 | 8.82169 | 22.26415 | 36889 ft | 480 kts | 139° |
| 2026-05-05 12:20 | 8.77146 | 22.30898 | 36852 ft | 483 kts | 139° |
| 2026-05-05 12:20 | 8.72133 | 22.35370 | 36866 ft | 481 kts | 139° |
| 2026-05-05 12:21 | 8.67121 | 22.39843 | 36915 ft | 479 kts | 139° |
| 2026-05-05 12:21 | 8.62138 | 22.44287 | 36954 ft | 479 kts | 139° |
| 2026-05-05 12:22 | 8.57147 | 22.48738 | 36935 ft | 479 kts | 139° |
| 2026-05-05 12:22 | 8.52130 | 22.53208 | 36906 ft | 480 kts | 139° |
| 2026-05-05 12:23 | 8.47121 | 22.57671 | 36920 ft | 480 kts | 139° |
| 2026-05-05 12:23 | 8.42118 | 22.62126 | 36967 ft | 480 kts | 139° |
| 2026-05-05 12:24 | 8.37123 | 22.66572 | 37000 ft | 478 kts | 139° |
| 2026-05-05 12:24 | 8.32112 | 22.71032 | 36990 ft | 477 kts | 139° |
| 2026-05-05 12:25 | 8.27111 | 22.75481 | 36952 ft | 478 kts | 139° |
| 2026-05-05 12:25 | 8.22128 | 22.79911 | 36930 ft | 479 kts | 139° |
| 2026-05-05 12:26 | 8.17154 | 22.84334 | 36955 ft | 477 kts | 139° |
| 2026-05-05 12:26 | 8.12627 | 22.89199 | 37012 ft | 476 kts | 132° |
| 2026-05-05 12:27 | 8.10423 | 22.91718 | 36906 ft | 478 kts | 132° |
| 2026-05-05 12:27 | 8.08223 | 22.94223 | 36990 ft | 475 kts | 132° |
| 2026-05-05 12:27 | 8.03840 | 22.99199 | 36929 ft | 477 kts | 132° |
| 2026-05-05 12:28 | 7.99412 | 23.04225 | 36886 ft | 478 kts | 132° |
| 2026-05-05 12:28 | 7.95022 | 23.09204 | 36903 ft | 479 kts | 132° |
| 2026-05-05 12:29 | 7.90589 | 23.14231 | 36952 ft | 479 kts | 132° |
| 2026-05-05 12:29 | 7.86150 | 23.19264 | 36959 ft | 477 kts | 132° |
| 2026-05-05 12:30 | 7.81709 | 23.24297 | 36923 ft | 477 kts | 132° |
| 2026-05-05 12:30 | 7.77283 | 23.29311 | 36881 ft | 479 kts | 132° |
| 2026-05-05 12:31 | 7.72880 | 23.34296 | 36892 ft | 480 kts | 132° |
| 2026-05-05 12:31 | 7.68445 | 23.39316 | 36938 ft | 479 kts | 132° |
| 2026-05-05 12:32 | 7.64008 | 23.44338 | 36977 ft | 479 kts | 132° |
| 2026-05-05 12:32 | 7.59545 | 23.49387 | 36955 ft | 480 kts | 132° |
| 2026-05-05 12:33 | 7.55107 | 23.54406 | 36905 ft | 480 kts | 132° |
| 2026-05-05 12:33 | 7.50665 | 23.59427 | 36902 ft | 482 kts | 132° |
| 2026-05-05 12:34 | 7.46229 | 23.64440 | 36948 ft | 481 kts | 132° |
| 2026-05-05 12:34 | 7.41775 | 23.69472 | 36986 ft | 480 kts | 132° |
| 2026-05-05 12:35 | 7.37326 | 23.74496 | 36963 ft | 480 kts | 132° |
| 2026-05-05 12:35 | 7.32863 | 23.79533 | 36914 ft | 481 kts | 132° |
| 2026-05-05 12:36 | 7.28423 | 23.84544 | 36899 ft | 483 kts | 132° |
| 2026-05-05 12:36 | 7.23949 | 23.89591 | 36927 ft | 482 kts | 132° |
| 2026-05-05 12:37 | 7.19503 | 23.94606 | 36972 ft | 480 kts | 133° |
| 2026-05-05 12:37 | 7.15048 | 23.99629 | 36956 ft | 481 kts | 132° |
| 2026-05-05 12:38 | 7.10559 | 24.04687 | 36904 ft | 482 kts | 132° |
| 2026-05-05 12:38 | 7.06106 | 24.09704 | 36872 ft | 483 kts | 132° |
| 2026-05-05 12:39 | 7.01621 | 24.14754 | 36883 ft | 484 kts | 132° |
| 2026-05-05 12:39 | 6.97157 | 24.19782 | 36919 ft | 482 kts | 132° |
| 2026-05-05 12:40 | 6.92684 | 24.24817 | 36915 ft | 482 kts | 132° |
| 2026-05-05 12:40 | 6.88195 | 24.29869 | 36875 ft | 482 kts | 132° |
| 2026-05-05 12:41 | 6.83722 | 24.34899 | 36856 ft | 483 kts | 132° |
| 2026-05-05 12:41 | 6.79242 | 24.39937 | 36887 ft | 484 kts | 132° |
| 2026-05-05 12:42 | 6.74749 | 24.44989 | 36925 ft | 483 kts | 132° |
| 2026-05-05 12:42 | 6.70279 | 24.50014 | 36913 ft | 482 kts | 132° |
| 2026-05-05 12:43 | 6.65793 | 24.55054 | 36871 ft | 484 kts | 132° |
| 2026-05-05 12:43 | 6.61305 | 24.60094 | 36857 ft | 483 kts | 132° |
| 2026-05-05 12:44 | 6.56843 | 24.65106 | 36888 ft | 483 kts | 132° |
| 2026-05-05 12:44 | 6.52346 | 24.70153 | 36918 ft | 482 kts | 132° |
| 2026-05-05 12:45 | 6.47870 | 24.75177 | 36903 ft | 482 kts | 132° |
| 2026-05-05 12:45 | 6.43750 | 24.79799 | 36851 ft | 483 kts | 132° |
| 2026-05-05 12:46 | 6.39265 | 24.84830 | 36854 ft | 484 kts | 132° |
| 2026-05-05 12:46 | 6.34800 | 24.89837 | 36895 ft | 483 kts | 132° |
| 2026-05-05 12:47 | 6.30286 | 24.94896 | 36919 ft | 482 kts | 132° |
| 2026-05-05 12:47 | 6.25829 | 24.99891 | 36885 ft | 482 kts | 132° |
| 2026-05-05 12:48 | 6.21316 | 25.04948 | 36849 ft | 484 kts | 132° |
| 2026-05-05 12:48 | 6.16837 | 25.09964 | 36855 ft | 484 kts | 132° |
| 2026-05-05 12:49 | 6.12351 | 25.14987 | 36896 ft | 483 kts | 131° |
| 2026-05-05 12:49 | 6.07870 | 25.20003 | 36917 ft | 483 kts | 131° |
| 2026-05-05 12:50 | 6.04245 | 25.25635 | 36904 ft | 481 kts | 110° |
| 2026-05-05 12:50 | 6.03375 | 25.28895 | 36893 ft | 483 kts | 98° |
| 2026-05-05 12:50 | 6.03177 | 25.32262 | 36851 ft | 480 kts | 85° |
| 2026-05-05 12:51 | 6.03701 | 25.35523 | 36937 ft | 477 kts | 73° |
| 2026-05-05 12:51 | 6.04786 | 25.38687 | 36854 ft | 479 kts | 70° |
| 2026-05-05 12:51 | 6.06501 | 25.45100 | 36875 ft | 478 kts | 75° |
| 2026-05-05 12:52 | 6.08054 | 25.51578 | 36911 ft | 476 kts | 75° |
| 2026-05-05 12:52 | 6.09594 | 25.58066 | 36903 ft | 475 kts | 75° |
| 2026-05-05 12:53 | 6.11123 | 25.64514 | 36861 ft | 476 kts | 75° |
| 2026-05-05 12:53 | 6.12656 | 25.70981 | 36836 ft | 478 kts | 75° |
| 2026-05-05 12:54 | 6.14959 | 25.80709 | 36861 ft | 476 kts | 76° |
| 2026-05-05 12:55 | 6.16488 | 25.87173 | 36841 ft | 476 kts | 76° |
| 2026-05-05 12:55 | 6.18006 | 25.93593 | 36864 ft | 475 kts | 76° |
| 2026-05-05 12:56 | 6.19529 | 26.00039 | 36906 ft | 474 kts | 76° |
| 2026-05-05 12:56 | 6.21045 | 26.06455 | 36904 ft | 474 kts | 76° |
| 2026-05-05 12:57 | 6.22574 | 26.12932 | 36867 ft | 475 kts | 75° |
| 2026-05-05 12:57 | 6.24095 | 26.19382 | 36845 ft | 476 kts | 75° |
| 2026-05-05 12:58 | 6.25609 | 26.25802 | 36879 ft | 476 kts | 75° |
| 2026-05-05 12:58 | 6.27130 | 26.32255 | 36912 ft | 474 kts | 76° |
| 2026-05-05 12:59 | 6.28636 | 26.38708 | 36909 ft | 473 kts | 77° |
| 2026-05-05 12:59 | 6.28963 | 26.41981 | 36858 ft | 476 kts | 90° |
| 2026-05-05 12:59 | 6.28581 | 26.45270 | 36885 ft | 476 kts | 102° |
| 2026-05-05 13:00 | 6.26014 | 26.51411 | 36861 ft | 480 kts | 114° |
| 2026-05-05 13:00 | 6.24653 | 26.54461 | 36904 ft | 479 kts | 112° |
| 2026-05-05 13:01 | 6.19432 | 26.66746 | 36830 ft | 477 kts | 115° |
| 2026-05-05 13:01 | 6.16825 | 26.72884 | 36835 ft | 476 kts | 116° |
| 2026-05-05 13:02 | 6.14252 | 26.78990 | 36929 ft | 478 kts | 111° |
| 2026-05-05 13:02 | 6.11664 | 26.85163 | 36942 ft | 482 kts | 112° |
| 2026-05-05 13:03 | 6.10356 | 26.88265 | 36839 ft | 481 kts | 112° |
| 2026-05-05 13:03 | 6.09054 | 26.91346 | 36893 ft | 475 kts | 112° |
| 2026-05-05 13:03 | 6.06475 | 26.97454 | 36843 ft | 476 kts | 112° |
| 2026-05-05 13:04 | 6.03881 | 27.03591 | 36832 ft | 477 kts | 112° |
| 2026-05-05 13:04 | 6.01301 | 27.09693 | 36869 ft | 477 kts | 112° |
| 2026-05-05 13:05 | 5.98712 | 27.15817 | 36910 ft | 476 kts | 112° |
| 2026-05-05 13:05 | 5.96127 | 27.21925 | 36907 ft | 475 kts | 112° |
| 2026-05-05 13:06 | 5.93535 | 27.28050 | 36861 ft | 476 kts | 112° |
| 2026-05-05 13:06 | 5.90934 | 27.34193 | 36828 ft | 477 kts | 112° |
| 2026-05-05 13:07 | 5.88331 | 27.40341 | 36839 ft | 477 kts | 112° |
| 2026-05-05 13:07 | 5.85736 | 27.46466 | 36887 ft | 477 kts | 112° |
| 2026-05-05 13:08 | 5.83134 | 27.52606 | 36904 ft | 475 kts | 112° |
| 2026-05-05 13:08 | 5.80542 | 27.58717 | 36873 ft | 475 kts | 112° |
| 2026-05-05 13:09 | 5.77935 | 27.64867 | 36843 ft | 476 kts | 112° |
| 2026-05-05 13:09 | 5.75324 | 27.71019 | 36852 ft | 476 kts | 112° |
| 2026-05-05 13:10 | 5.72722 | 27.77152 | 36894 ft | 476 kts | 112° |
| 2026-05-05 13:10 | 5.70121 | 27.83280 | 36908 ft | 475 kts | 113° |
| 2026-05-05 13:11 | 5.67525 | 27.89392 | 36875 ft | 475 kts | 113° |
| 2026-05-05 13:11 | 5.64919 | 27.95527 | 36838 ft | 474 kts | 113° |
| 2026-05-05 13:12 | 5.62323 | 28.01633 | 36839 ft | 473 kts | 113° |
| 2026-05-05 13:12 | 5.59730 | 28.07733 | 36883 ft | 473 kts | 113° |
| 2026-05-05 13:13 | 5.57145 | 28.13813 | 36913 ft | 473 kts | 113° |
| 2026-05-05 13:13 | 5.54540 | 28.19935 | 36888 ft | 471 kts | 113° |
| 2026-05-05 13:14 | 5.51958 | 28.26003 | 36853 ft | 471 kts | 113° |
| 2026-05-05 13:14 | 5.49383 | 28.32052 | 36843 ft | 472 kts | 113° |
| 2026-05-05 13:15 | 5.46798 | 28.38122 | 36874 ft | 472 kts | 113° |
| 2026-05-05 13:15 | 5.44220 | 28.44175 | 36910 ft | 472 kts | 113° |
| 2026-05-05 13:16 | 5.41615 | 28.50288 | 36893 ft | 471 kts | 113° |
| 2026-05-05 13:16 | 5.39025 | 28.56366 | 36849 ft | 470 kts | 113° |
| 2026-05-05 13:17 | 5.36458 | 28.62388 | 36829 ft | 470 kts | 113° |
| 2026-05-05 13:17 | 5.33879 | 28.68433 | 36853 ft | 472 kts | 113° |
| 2026-05-05 13:18 | 5.31298 | 28.74481 | 36896 ft | 472 kts | 113° |
| 2026-05-05 13:18 | 5.28695 | 28.80580 | 36914 ft | 471 kts | 113° |
| 2026-05-05 13:19 | 5.26102 | 28.86656 | 36889 ft | 470 kts | 113° |
| 2026-05-05 13:19 | 5.23527 | 28.92687 | 36857 ft | 469 kts | 113° |
| 2026-05-05 13:20 | 5.20956 | 28.98707 | 36858 ft | 470 kts | 113° |
| 2026-05-05 13:20 | 5.18360 | 29.04783 | 36903 ft | 472 kts | 113° |
| 2026-05-05 13:21 | 5.15774 | 29.10829 | 36921 ft | 472 kts | 113° |
| 2026-05-05 13:21 | 5.13176 | 29.16909 | 36898 ft | 471 kts | 113° |
| 2026-05-05 13:22 | 5.10569 | 29.23002 | 36870 ft | 472 kts | 113° |
| 2026-05-05 13:22 | 5.07978 | 29.29059 | 36883 ft | 474 kts | 113° |
| 2026-05-05 13:23 | 5.05389 | 29.35110 | 36917 ft | 471 kts | 113° |
| 2026-05-05 13:23 | 5.02794 | 29.41174 | 36938 ft | 468 kts | 113° |
| 2026-05-05 13:24 | 5.00213 | 29.47201 | 36910 ft | 468 kts | 113° |
| 2026-05-05 13:24 | 4.97615 | 29.53266 | 36879 ft | 475 kts | 113° |
| 2026-05-05 13:25 | 4.94982 | 29.59410 | 36890 ft | 477 kts | 113° |
| 2026-05-05 13:25 | 4.92369 | 29.65509 | 36927 ft | 474 kts | 113° |
| 2026-05-05 13:26 | 4.89765 | 29.71581 | 36952 ft | 471 kts | 113° |
| 2026-05-05 13:26 | 4.87145 | 29.77695 | 36925 ft | 471 kts | 113° |
| 2026-05-05 13:27 | 4.84555 | 29.83731 | 36886 ft | 472 kts | 113° |
| 2026-05-05 13:27 | 4.81966 | 29.89767 | 36894 ft | 474 kts | 113° |
| 2026-05-05 13:28 | 4.79363 | 29.95832 | 36935 ft | 474 kts | 113° |
| 2026-05-05 13:28 | 4.76739 | 30.01942 | 36965 ft | 474 kts | 113° |
| 2026-05-05 13:29 | 4.74138 | 30.08001 | 36939 ft | 474 kts | 113° |
| 2026-05-05 13:29 | 4.71525 | 30.14084 | 36890 ft | 472 kts | 113° |
| 2026-05-05 13:30 | 4.68931 | 30.20119 | 36893 ft | 472 kts | 113° |
| 2026-05-05 13:30 | 4.66342 | 30.26144 | 36933 ft | 472 kts | 112° |
| 2026-05-05 13:31 | 4.63749 | 30.32177 | 36967 ft | 471 kts | 112° |
| 2026-05-05 13:31 | 4.61161 | 30.38196 | 36948 ft | 468 kts | 112° |
| 2026-05-05 13:32 | 4.58580 | 30.44198 | 36911 ft | 469 kts | 113° |
| 2026-05-05 13:32 | 4.55993 | 30.50211 | 36911 ft | 470 kts | 113° |
| 2026-05-05 13:33 | 4.53395 | 30.56247 | 36939 ft | 469 kts | 113° |
| 2026-05-05 13:33 | 4.50812 | 30.62246 | 36972 ft | 469 kts | 113° |
| 2026-05-05 13:34 | 4.48207 | 30.68298 | 36960 ft | 468 kts | 113° |
| 2026-05-05 13:34 | 4.45615 | 30.74316 | 36932 ft | 467 kts | 113° |
| 2026-05-05 13:35 | 4.43044 | 30.80283 | 36909 ft | 467 kts | 113° |
| 2026-05-05 13:35 | 4.40463 | 30.86273 | 36930 ft | 468 kts | 113° |
| 2026-05-05 13:36 | 4.37890 | 30.92241 | 36977 ft | 466 kts | 113° |
| 2026-05-05 13:36 | 4.35329 | 30.98183 | 37012 ft | 466 kts | 113° |
| 2026-05-05 13:37 | 4.32735 | 31.04196 | 36984 ft | 466 kts | 113° |
| 2026-05-05 13:37 | 4.30160 | 31.10168 | 36925 ft | 467 kts | 113° |
| 2026-05-05 13:38 | 4.27584 | 31.16138 | 36913 ft | 468 kts | 113° |
| 2026-05-05 13:38 | 4.25004 | 31.22116 | 36942 ft | 468 kts | 113° |
| 2026-05-05 13:39 | 4.22428 | 31.28084 | 36974 ft | 466 kts | 113° |
| 2026-05-05 13:39 | 4.19849 | 31.34057 | 36983 ft | 465 kts | 113° |
| 2026-05-05 13:40 | 4.17281 | 31.40002 | 36952 ft | 465 kts | 113° |
| 2026-05-05 13:40 | 4.14698 | 31.45982 | 36915 ft | 467 kts | 113° |
| 2026-05-05 13:41 | 4.12107 | 31.51979 | 36920 ft | 468 kts | 113° |
| 2026-05-05 13:41 | 4.09518 | 31.57969 | 36948 ft | 467 kts | 113° |
| 2026-05-05 13:42 | 4.06921 | 31.63979 | 36959 ft | 467 kts | 113° |
| 2026-05-05 13:42 | 4.04337 | 31.69954 | 36947 ft | 466 kts | 113° |
| 2026-05-05 13:43 | 4.01223 | 31.75675 | 36884 ft | 466 kts | 132° |
| 2026-05-05 13:43 | 3.98762 | 31.77748 | 36972 ft | 467 kts | 148° |
| 2026-05-05 13:43 | 3.95772 | 31.79117 | 36900 ft | 467 kts | 163° |
| 2026-05-05 13:44 | 3.92590 | 31.79585 | 36945 ft | 462 kts | 180° |
| 2026-05-05 13:44 | 3.89372 | 31.79160 | 36965 ft | 463 kts | 193° |
| 2026-05-05 13:44 | 3.82980 | 31.78102 | 36960 ft | 464 kts | 186° |
| 2026-05-05 13:45 | 3.76482 | 31.77343 | 36936 ft | 465 kts | 186° |
| 2026-05-05 13:45 | 3.70057 | 31.76614 | 36920 ft | 467 kts | 186° |
| 2026-05-05 13:46 | 3.63546 | 31.75876 | 36940 ft | 467 kts | 186° |
| 2026-05-05 13:46 | 3.57071 | 31.75144 | 36967 ft | 465 kts | 186° |
| 2026-05-05 13:47 | 3.50621 | 31.74414 | 36974 ft | 464 kts | 186° |
| 2026-05-05 13:47 | 3.44099 | 31.73677 | 36948 ft | 465 kts | 186° |
| 2026-05-05 13:48 | 3.37617 | 31.72943 | 36919 ft | 467 kts | 186° |
| 2026-05-05 13:48 | 3.31136 | 31.72211 | 36936 ft | 469 kts | 186° |
| 2026-05-05 13:49 | 3.24606 | 31.71472 | 36981 ft | 468 kts | 186° |
| 2026-05-05 13:49 | 3.18065 | 31.70734 | 37012 ft | 467 kts | 186° |
| 2026-05-05 13:50 | 3.11570 | 31.69999 | 37001 ft | 468 kts | 186° |
| 2026-05-05 13:50 | 3.05007 | 31.69258 | 36973 ft | 469 kts | 186° |
| 2026-05-05 13:51 | 2.98465 | 31.68518 | 36983 ft | 470 kts | 186° |
| 2026-05-05 13:51 | 2.91932 | 31.67780 | 37011 ft | 470 kts | 186° |
| 2026-05-05 13:52 | 2.85345 | 31.67035 | 37038 ft | 469 kts | 186° |
| 2026-05-05 13:52 | 2.78843 | 31.66301 | 37020 ft | 469 kts | 186° |
| 2026-05-05 13:53 | 2.72273 | 31.65559 | 36990 ft | 469 kts | 186° |
| 2026-05-05 13:53 | 2.65773 | 31.64825 | 36994 ft | 469 kts | 186° |
| 2026-05-05 13:54 | 2.59250 | 31.64088 | 37021 ft | 468 kts | 186° |
| 2026-05-05 13:54 | 2.52733 | 31.63352 | 37028 ft | 468 kts | 186° |
| 2026-05-05 13:55 | 2.46194 | 31.62614 | 36996 ft | 468 kts | 186° |
| 2026-05-05 13:55 | 2.39643 | 31.61875 | 36967 ft | 469 kts | 186° |
| 2026-05-05 13:56 | 2.33144 | 31.61141 | 36973 ft | 469 kts | 186° |
| 2026-05-05 13:56 | 2.26622 | 31.60405 | 37001 ft | 468 kts | 186° |
| 2026-05-05 13:57 | 2.20109 | 31.59670 | 37010 ft | 467 kts | 186° |
| 2026-05-05 13:57 | 2.13601 | 31.58936 | 36978 ft | 468 kts | 186° |
| 2026-05-05 13:58 | 2.07064 | 31.58198 | 36959 ft | 470 kts | 186° |
| 2026-05-05 13:58 | 2.00572 | 31.57466 | 36981 ft | 470 kts | 186° |
| 2026-05-05 13:59 | 1.90755 | 31.56358 | 36982 ft | 469 kts | 186° |
| 2026-05-05 14:00 | 1.82027 | 31.55373 | 37002 ft | 469 kts | 186° |
| 2026-05-05 14:00 | 1.74403 | 31.54513 | 37027 ft | 468 kts | 186° |
| 2026-05-05 14:01 | 1.67923 | 31.53782 | 37060 ft | 467 kts | 186° |
| 2026-05-05 14:01 | 1.61402 | 31.53047 | 37092 ft | 467 kts | 186° |
| 2026-05-05 14:02 | 1.54892 | 31.52313 | 37082 ft | 466 kts | 186° |
| 2026-05-05 14:02 | 1.48411 | 31.51582 | 37056 ft | 466 kts | 186° |
| 2026-05-05 14:03 | 1.41924 | 31.50851 | 37042 ft | 466 kts | 186° |
| 2026-05-05 14:03 | 1.35412 | 31.50117 | 37059 ft | 466 kts | 185° |
| 2026-05-05 14:04 | 1.28965 | 31.49389 | 37070 ft | 464 kts | 185° |
| 2026-05-05 14:04 | 1.22494 | 31.48660 | 37042 ft | 463 kts | 185° |
| 2026-05-05 14:05 | 1.16026 | 31.47931 | 37017 ft | 463 kts | 185° |
| 2026-05-05 14:05 | 1.09563 | 31.47203 | 37021 ft | 464 kts | 185° |
| 2026-05-05 14:06 | 1.03147 | 31.46479 | 37058 ft | 463 kts | 185° |
| 2026-05-05 14:06 | 0.96701 | 31.45753 | 37089 ft | 462 kts | 185° |
| 2026-05-05 14:07 | 0.90236 | 31.45024 | 37082 ft | 462 kts | 185° |
| 2026-05-05 14:07 | 0.83765 | 31.44295 | 37064 ft | 463 kts | 185° |
| 2026-05-05 14:08 | 0.77301 | 31.43566 | 37077 ft | 464 kts | 185° |
| 2026-05-05 14:08 | 0.70871 | 31.42842 | 37113 ft | 463 kts | 186° |
| 2026-05-05 14:09 | 0.64442 | 31.42117 | 37127 ft | 462 kts | 186° |
| 2026-05-05 14:09 | 0.57991 | 31.41390 | 37101 ft | 462 kts | 186° |
| 2026-05-05 14:10 | 0.51590 | 31.40669 | 37070 ft | 463 kts | 186° |
| 2026-05-05 14:10 | 0.45152 | 31.39943 | 37082 ft | 463 kts | 186° |
| 2026-05-05 14:11 | 0.38729 | 31.39219 | 37113 ft | 463 kts | 186° |
| 2026-05-05 14:11 | 0.32293 | 31.38495 | 37128 ft | 462 kts | 186° |
| 2026-05-05 14:12 | 0.25821 | 31.37766 | 37100 ft | 461 kts | 186° |
| 2026-05-05 14:12 | 0.19404 | 31.37043 | 37067 ft | 462 kts | 186° |
| 2026-05-05 14:13 | 0.12981 | 31.36318 | 37082 ft | 463 kts | 186° |
| 2026-05-05 14:13 | 0.06552 | 31.35594 | 37118 ft | 463 kts | 186° |
| 2026-05-05 14:14 | 0.00069 | 31.34863 | 37132 ft | 462 kts | 186° |
| 2026-05-05 14:14 | -0.06404 | 31.34133 | 37112 ft | 463 kts | 186° |
| 2026-05-05 14:15 | -0.12846 | 31.33407 | 37090 ft | 464 kts | 186° |
| 2026-05-05 14:15 | -0.19319 | 31.32679 | 37102 ft | 463 kts | 186° |
| 2026-05-05 14:16 | -0.25768 | 31.31952 | 37142 ft | 463 kts | 186° |
| 2026-05-05 14:16 | -0.32194 | 31.31227 | 37158 ft | 462 kts | 186° |
| 2026-05-05 14:17 | -0.38615 | 31.30504 | 37126 ft | 462 kts | 186° |
| 2026-05-05 14:17 | -0.45039 | 31.29780 | 37096 ft | 463 kts | 186° |
| 2026-05-05 14:18 | -0.51480 | 31.29055 | 37109 ft | 463 kts | 186° |
| 2026-05-05 14:18 | -0.57886 | 31.28332 | 37146 ft | 461 kts | 186° |
| 2026-05-05 14:19 | -0.64309 | 31.27608 | 37158 ft | 461 kts | 186° |
| 2026-05-05 14:19 | -0.70759 | 31.26881 | 37135 ft | 463 kts | 186° |
| 2026-05-05 14:20 | -0.77190 | 31.26157 | 36916 ft | 467 kts | 186° |
| 2026-05-05 14:20 | -0.80452 | 31.25789 | 36581 ft | 465 kts | 186° |
| 2026-05-05 14:20 | -0.83662 | 31.25427 | 36296 ft | 461 kts | 186° |
| 2026-05-05 14:21 | -0.86876 | 31.25065 | 36013 ft | 461 kts | 186° |
| 2026-05-05 14:21 | -0.90058 | 31.24707 | 35726 ft | 463 kts | 186° |
| 2026-05-05 14:21 | -0.93295 | 31.24341 | 35436 ft | 465 kts | 186° |
| 2026-05-05 14:21 | -0.96488 | 31.23955 | 35144 ft | 466 kts | 189° |
| 2026-05-05 14:22 | -0.99592 | 31.22964 | 34815 ft | 468 kts | 205° |
| 2026-05-05 14:22 | -1.02319 | 31.21164 | 34537 ft | 470 kts | 221° |
| 2026-05-05 14:22 | -1.04554 | 31.18743 | 34270 ft | 474 kts | 229° |
| 2026-05-05 14:22 | -1.06767 | 31.16263 | 33482 ft | 481 kts | 227° |
| 2026-05-05 14:23 | -1.09000 | 31.13812 | 32777 ft | 480 kts | 227° |
| 2026-05-05 14:23 | -1.11287 | 31.11315 | 32041 ft | 481 kts | 227° |
| 2026-05-05 14:23 | -1.13568 | 31.08830 | 31328 ft | 481 kts | 227° |
| 2026-05-05 14:23 | -1.15829 | 31.06368 | 30750 ft | 479 kts | 227° |
| 2026-05-05 14:24 | -1.18105 | 31.03889 | 30201 ft | 475 kts | 227° |
| 2026-05-05 14:24 | -1.20329 | 31.01467 | 29671 ft | 472 kts | 227° |
| 2026-05-05 14:24 | -1.22555 | 30.99043 | 29139 ft | 469 kts | 227° |
| 2026-05-05 14:24 | -1.24783 | 30.96617 | 28548 ft | 466 kts | 227° |
| 2026-05-05 14:25 | -1.26966 | 30.94240 | 27968 ft | 464 kts | 227° |
| 2026-05-05 14:25 | -1.29179 | 30.91830 | 27374 ft | 462 kts | 227° |
| 2026-05-05 14:25 | -1.31334 | 30.89484 | 26854 ft | 458 kts | 227° |
| 2026-05-05 14:25 | -1.33512 | 30.87111 | 26371 ft | 453 kts | 226° |
| 2026-05-05 14:26 | -1.35626 | 30.84809 | 25898 ft | 448 kts | 226° |
| 2026-05-05 14:26 | -1.37731 | 30.82517 | 25414 ft | 443 kts | 226° |
| 2026-05-05 14:26 | -1.39825 | 30.80236 | 24912 ft | 439 kts | 226° |
| 2026-05-05 14:26 | -1.41873 | 30.78006 | 24399 ft | 435 kts | 226° |
| 2026-05-05 14:27 | -1.43942 | 30.75751 | 23864 ft | 432 kts | 226° |
| 2026-05-05 14:27 | -1.45657 | 30.73301 | 23299 ft | 431 kts | 242° |
| 2026-05-05 14:27 | -1.46879 | 30.70571 | 22791 ft | 427 kts | 245° |
| 2026-05-05 14:27 | -1.48084 | 30.67866 | 22252 ft | 424 kts | 245° |
| 2026-05-05 14:28 | -1.49281 | 30.65191 | 21741 ft | 420 kts | 245° |
| 2026-05-05 14:28 | -1.50484 | 30.62499 | 21217 ft | 417 kts | 245° |
| 2026-05-05 14:28 | -1.51668 | 30.59857 | 20722 ft | 412 kts | 245° |
| 2026-05-05 14:28 | -1.52838 | 30.57245 | 20243 ft | 408 kts | 245° |
| 2026-05-05 14:29 | -1.53993 | 30.54665 | 19748 ft | 404 kts | 245° |
| 2026-05-05 14:29 | -1.55134 | 30.52117 | 19268 ft | 399 kts | 245° |
| 2026-05-05 14:29 | -1.56263 | 30.49597 | 18803 ft | 394 kts | 245° |
| 2026-05-05 14:29 | -1.57377 | 30.47107 | 18338 ft | 390 kts | 245° |
| 2026-05-05 14:30 | -1.58489 | 30.44624 | 17829 ft | 386 kts | 245° |
| 2026-05-05 14:30 | -1.59580 | 30.42180 | 17359 ft | 382 kts | 245° |
| 2026-05-05 14:30 | -1.60664 | 30.39757 | 16910 ft | 378 kts | 245° |
| 2026-05-05 14:30 | -1.61730 | 30.37375 | 16440 ft | 374 kts | 246° |
| 2026-05-05 14:31 | -1.62786 | 30.35017 | 15970 ft | 371 kts | 246° |
| 2026-05-05 14:31 | -1.63836 | 30.32672 | 15502 ft | 368 kts | 246° |
| 2026-05-05 14:31 | -1.64883 | 30.30333 | 15021 ft | 365 kts | 246° |
| 2026-05-05 14:31 | -1.65908 | 30.28041 | 14539 ft | 362 kts | 246° |
| 2026-05-05 14:32 | -1.66945 | 30.25726 | 14058 ft | 360 kts | 246° |
| 2026-05-05 14:32 | -1.67960 | 30.23457 | 13578 ft | 358 kts | 247° |
| 2026-05-05 14:32 | -1.68968 | 30.21204 | 13093 ft | 356 kts | 247° |
| 2026-05-05 14:32 | -1.69977 | 30.18947 | 12615 ft | 354 kts | 247° |
| 2026-05-05 14:33 | -1.70972 | 30.16726 | 12158 ft | 351 kts | 246° |
| 2026-05-05 14:33 | -1.71957 | 30.14524 | 11723 ft | 348 kts | 246° |
| 2026-05-05 14:33 | -1.72951 | 30.12302 | 11292 ft | 345 kts | 246° |
| 2026-05-05 14:33 | -1.73914 | 30.10154 | 11059 ft | 335 kts | 246° |
| 2026-05-05 14:34 | -1.74856 | 30.08045 | 10987 ft | 332 kts | 246° |
| 2026-05-05 14:34 | -1.75809 | 30.05915 | 10861 ft | 331 kts | 247° |
| 2026-05-05 14:34 | -1.76748 | 30.03818 | 10766 ft | 331 kts | 247° |
| 2026-05-05 14:34 | -1.77682 | 30.01730 | 10649 ft | 330 kts | 246° |
| 2026-05-05 14:35 | -1.78619 | 29.99636 | 10528 ft | 324 kts | 246° |
| 2026-05-05 14:35 | -1.79520 | 29.97622 | 10472 ft | 310 kts | 246° |
| 2026-05-05 14:35 | -1.80382 | 29.95694 | 10342 ft | 299 kts | 246° |
| 2026-05-05 14:35 | -1.81218 | 29.93826 | 10221 ft | 289 kts | 246° |
| 2026-05-05 14:36 | -1.82111 | 29.92054 | 9952 ft | 286 kts | 233° |
| 2026-05-05 14:36 | -1.83594 | 29.90796 | 9849 ft | 275 kts | 208° |
| 2026-05-05 14:36 | -1.85460 | 29.90196 | 9071 ft | 289 kts | 187° |
| 2026-05-05 14:36 | -1.87402 | 29.89891 | 9144 ft | 273 kts | 189° |
| 2026-05-05 14:37 | -1.89315 | 29.89576 | 9116 ft | 277 kts | 186° |
| 2026-05-05 14:37 | -1.91206 | 29.89607 | 9057 ft | 263 kts | 168° |
| 2026-05-05 14:37 | -1.92765 | 29.90383 | 9077 ft | 246 kts | 135° |
| 2026-05-05 14:37 | -1.93552 | 29.91788 | 8991 ft | 228 kts | 97° |
| 2026-05-05 14:38 | -1.93621 | 29.93358 | 8727 ft | 216 kts | 92° |
| 2026-05-05 14:38 | -1.93741 | 29.94840 | 8457 ft | 210 kts | 95° |
| 2026-05-05 14:38 | -1.93904 | 29.96241 | 8185 ft | 194 kts | 96° |
| 2026-05-05 14:38 | -1.94078 | 29.97509 | 7881 ft | 174 kts | 98° |
| 2026-05-05 14:39 | -1.94246 | 29.98628 | 7638 ft | 158 kts | 98° |
| 2026-05-05 14:39 | -1.94404 | 29.99699 | 7433 ft | 156 kts | 99° |
| 2026-05-05 14:39 | -1.94560 | 30.00774 | 7239 ft | 154 kts | 98° |
| 2026-05-05 14:39 | -1.94737 | 30.01826 | 7047 ft | 154 kts | 102° |
| 2026-05-05 14:40 | -1.94926 | 30.02885 | 6860 ft | 154 kts | 100° |
| 2026-05-05 14:40 | -1.95107 | 30.03933 | 6641 ft | 154 kts | 102° |
| 2026-05-05 14:40 | -1.95296 | 30.05002 | 6448 ft | 155 kts | 102° |
| 2026-05-05 14:40 | -1.95482 | 30.06050 | 6230 ft | 152 kts | 100° |
| 2026-05-05 14:41 | -1.95659 | 30.07081 | 6035 ft | 154 kts | 99° |
| 2026-05-05 14:41 | -1.95843 | 30.08119 | 5829 ft | 149 kts | 99° |
| 2026-05-05 14:41 | -1.96020 | 30.09137 | 5636 ft | 153 kts | 101° |
| 2026-05-05 14:41 | -1.96208 | 30.10172 | 5423 ft | 150 kts | 100° |
| 2026-05-05 14:42 | -1.96384 | 30.11204 | 5217 ft | 151 kts | 102° |
| 2026-05-05 14:42 | -1.96553 | 30.12227 | 4968 ft | 152 kts | 102° |
| 2026-05-05 14:42 | -1.96745 | 30.13273 | 4903 ft | 146 kts | 99° |
| 2026-05-05 14:42 | -1.96916 | 30.14241 | 5050 ft | 150 kts | 103° |
| 2026-05-05 14:43 | -1.97136 | 30.15327 | 5714 ft | 167 kts | 101° |
| 2026-05-05 14:43 | -1.97313 | 30.16458 | 6624 ft | 169 kts | 102° |
| 2026-05-05 14:43 | -1.97495 | 30.17496 | 7423 ft | 147 kts | 99° |
| 2026-05-05 14:43 | -1.97676 | 30.18553 | 7589 ft | 158 kts | 101° |
| 2026-05-05 14:44 | -1.97871 | 30.19663 | 7780 ft | 167 kts | 99° |
| 2026-05-05 14:44 | -1.98082 | 30.20881 | 7884 ft | 186 kts | 100° |
| 2026-05-05 14:44 | -1.98671 | 30.22062 | 8025 ft | 200 kts | 135° |
| 2026-05-05 14:44 | -1.99925 | 30.22666 | 8276 ft | 208 kts | 172° |
| 2026-05-05 14:45 | -2.01364 | 30.22389 | 8580 ft | 216 kts | 209° |
| 2026-05-05 14:45 | -2.02395 | 30.21312 | 8988 ft | 218 kts | 242° |
| 2026-05-05 14:45 | -2.02886 | 30.19868 | 9043 ft | 224 kts | 261° |
| 2026-05-05 14:45 | -2.03030 | 30.18214 | 9045 ft | 255 kts | 268° |
| 2026-05-05 14:46 | -2.03057 | 30.16346 | 9101 ft | 284 kts | 270° |
| 2026-05-05 14:46 | -2.03030 | 30.14355 | 9045 ft | 281 kts | 271° |
| 2026-05-05 14:46 | -2.02991 | 30.12431 | 9050 ft | 276 kts | 271° |
| 2026-05-05 14:46 | -2.02946 | 30.10515 | 9062 ft | 274 kts | 272° |
| 2026-05-05 14:47 | -2.02901 | 30.08622 | 9045 ft | 272 kts | 272° |
| 2026-05-05 14:47 | -2.02856 | 30.06732 | 9057 ft | 272 kts | 272° |
| 2026-05-05 14:47 | -2.02812 | 30.04829 | 9057 ft | 273 kts | 272° |
| 2026-05-05 14:47 | -2.02766 | 30.02929 | 9046 ft | 273 kts | 272° |
| 2026-05-05 14:48 | -2.02720 | 30.01036 | 9055 ft | 273 kts | 272° |
| 2026-05-05 14:48 | -2.02676 | 29.99132 | 9057 ft | 273 kts | 272° |
| 2026-05-05 14:48 | -2.02630 | 29.97226 | 9053 ft | 272 kts | 271° |
| 2026-05-05 14:48 | -2.02585 | 29.95323 | 9065 ft | 273 kts | 271° |
| 2026-05-05 14:49 | -2.02539 | 29.93432 | 9070 ft | 272 kts | 271° |
| 2026-05-05 14:49 | -2.02477 | 29.91533 | 9067 ft | 272 kts | 277° |
| 2026-05-05 14:49 | -2.01857 | 29.89766 | 9074 ft | 271 kts | 305° |
| 2026-05-05 14:49 | -2.00484 | 29.88504 | 9093 ft | 269 kts | 333° |
| 2026-05-05 14:50 | -1.98684 | 29.88018 | 9080 ft | 266 kts | 359° |
| 2026-05-05 14:50 | -1.96877 | 29.88254 | 9079 ft | 254 kts | 11° |
| 2026-05-05 14:50 | -1.95175 | 29.88553 | 9044 ft | 236 kts | 11° |
| 2026-05-05 14:50 | -1.93686 | 29.89062 | 9073 ft | 219 kts | 25° |
| 2026-05-05 14:51 | -1.92512 | 29.89970 | 9221 ft | 210 kts | 54° |
| 2026-05-05 14:51 | -1.92127 | 29.91377 | 8970 ft | 213 kts | 96° |
| 2026-05-05 14:51 | -1.92599 | 29.92751 | 8789 ft | 208 kts | 110° |
| 2026-05-05 14:51 | -1.93043 | 29.94114 | 8523 ft | 203 kts | 105° |
| 2026-05-05 14:52 | -1.93399 | 29.95439 | 8257 ft | 194 kts | 103° |
| 2026-05-05 14:52 | -1.93705 | 29.96743 | 8014 ft | 191 kts | 103° |
| 2026-05-05 14:52 | -1.93983 | 29.98038 | 7781 ft | 190 kts | 102° |
| 2026-05-05 14:52 | -1.94245 | 29.99331 | 7536 ft | 188 kts | 103° |
| 2026-05-05 14:53 | -1.94511 | 30.00609 | 7340 ft | 188 kts | 103° |
| 2026-05-05 14:53 | -1.94749 | 30.01874 | 7063 ft | 176 kts | 100° |
| 2026-05-05 14:53 | -1.94949 | 30.03024 | 6798 ft | 161 kts | 101° |
| 2026-05-05 14:53 | -1.95141 | 30.04117 | 6595 ft | 157 kts | 103° |
| 2026-05-05 14:54 | -1.95328 | 30.05191 | 6395 ft | 156 kts | 102° |
| 2026-05-05 14:54 | -1.95521 | 30.06289 | 6197 ft | 158 kts | 103° |
| 2026-05-05 14:54 | -1.95710 | 30.07371 | 5987 ft | 160 kts | 102° |
| 2026-05-05 14:54 | -1.95901 | 30.08434 | 5765 ft | 154 kts | 100° |
| 2026-05-05 14:55 | -1.96085 | 30.09505 | 5561 ft | 157 kts | 103° |
| 2026-05-05 14:55 | -1.96268 | 30.10571 | 5324 ft | 157 kts | 101° |
| 2026-05-05 14:55 | -1.96453 | 30.11662 | 5078 ft | 156 kts | 101° |
| 2026-05-05 14:55 | -1.96647 | 30.12726 | 4888 ft | 156 kts | 103° |
| 2026-05-05 14:56 | -1.96811 | 30.13645 | 4893 ft | 110 kts | 99° |
| 2026-05-05 14:56 | -1.96928 | 30.14325 | 4879 ft | 84 kts | 100° |
| 2026-05-05 14:56 | -1.97015 | 30.14816 | 4874 ft | 65 kts | 99° |
| 2026-05-05 14:56 | -1.97081 | 30.15181 | 4875 ft | 40 kts | 103° |
| 2026-05-05 14:57 | -1.97111 | 30.15383 | 4870 ft | 24 kts | 78° |
| 2026-05-05 14:57 | -1.97134 | 30.15453 | 4865 ft | 11 kts | 232° |
| 2026-05-05 14:57 | -1.97121 | 30.15391 | 4869 ft | 8 kts | 287° |
| 2026-05-05 14:57 | -1.97105 | 30.15324 | 4872 ft | 13 kts | 282° |
| 2026-05-05 14:58 | -1.97086 | 30.15215 | 4874 ft | 19 kts | 278° |
| 2026-05-05 14:58 | -1.97060 | 30.15071 | 4875 ft | 22 kts | 281° |
| 2026-05-05 14:58 | -1.97040 | 30.14917 | 4874 ft | 22 kts | 277° |
| 2026-05-05 14:58 | -1.97008 | 30.14768 | 4874 ft | 21 kts | 280° |
| 2026-05-05 14:59 | -1.96983 | 30.14624 | 4874 ft | 20 kts | 280° |
| 2026-05-05 14:59 | -1.96959 | 30.14486 | 4876 ft | 19 kts | 280° |
| 2026-05-05 14:59 | -1.96931 | 30.14330 | 4878 ft | 29 kts | 280° |
| 2026-05-05 14:59 | -1.96889 | 30.14095 | 4884 ft | 39 kts | 279° |
| 2026-05-05 15:00 | -1.96841 | 30.13810 | 4891 ft | 41 kts | 281° |
| 2026-05-05 15:00 | -1.96807 | 30.13626 | 4893 ft | 40 kts | 279° |
| 2026-05-05 15:00 | -1.96756 | 30.13373 | 4893 ft | 20 kts | 307° |
| 2026-05-05 15:00 | -1.96638 | 30.13369 | 4896 ft | 16 kts | 20° |
| 2026-05-05 15:01 | -1.96609 | 30.13453 | 4897 ft | 13 kts | 90° |
| 2026-05-05 15:01 | -1.96549 | 30.13501 | 4898 ft | 12 kts | 360° |
| 2026-05-05 15:01 | -1.96483 | 30.13498 | 4897 ft | 7 kts | 4° |
| 2026-05-05 15:01 | -1.96440 | 30.13505 | 4896 ft | 0 kts | 9° |